Center Hill, Florida
Current Conditions -  °F | °C
As of 3:53 PM on Monday 24 Nov 2014 (Local Time) from KLEE Reporting Station
Clear Clear  
Wind Chill: 83°   Ceiling: Unl
Heat Index: 85°   Visibility: 10mi
Dew Point: 67°   Wind: 12mph
Humidity: 58%   Direction: 230°SW
Pressure: 29.92"   Gusts: NA
Location:  28.65°N, 81.99°W
Report Text: KLEE 242053Z 23010KT 10SM CLR 28/19 A2992 RMK AO2 SLP131 T02830194 55005
Loading
Personal Weather Stations






























Interactive Weather Map New forecast layout! Learn more

10-Day Weather Forecast

Advertisements
Track Severe Weather on mobile